Latest Weather Observations for Pallamana

IDS60801

Issued at 8:02 pm CST Sunday 25 June 2017 (issued every 30 minutes, with the page automatically refreshed every 10 minutes)

About weather observations | Map of weather stations | Latest weather observations for SA | Other Formats
Station Details ID: 024584 Name: PALLAMANA AERODROME Lat: -35.06 Lon: 139.23 Height: 45.0 m
Data from the previous 72 hours. | See also: Recent months at Pallamana
Date/Time
CST
Temp
°C
App
Temp
°C
Dew
Point
°C
Rel
Hum
%
Delta-T
°C
Wind Press
QNH
hPa
Press
MSL
hPa
Rain since
9am
mm
Dir  Spd
km/h
Gust
km/h
Spd
kts
Gust
kts
25/08:00pm 8.8 5.4 5.9 82 1.3 W 13 17 7 9 1021.6 1021.7 0.0
25/07:30pm 7.1 4.2 4.8 85 1.0 W 9 11 5 6 1021.2 1021.3 0.0
25/07:00pm 9.7 6.4 6.2 79 1.6 WNW 13 15 7 8 1020.9 1020.9 0.0
25/06:30pm 10.3 7.0 6.2 76 1.9 W 13 17 7 9 1020.9 1020.9 0.0
25/06:00pm 11.3 8.3 6.2 71 2.4 W 11 15 6 8 1020.8 1020.8 0.0
25/05:30pm 12.6 9.3 6.5 66 2.9 W 13 17 7 9 1020.5 1020.5 0.0
25/05:00pm 13.1 10.1 6.1 62 3.3 W 11 15 6 8 1020.5 1020.5 0.0
25/04:30pm 13.2 8.6 6.3 63 3.3 WSW 20 30 11 16 1020.4 1020.4 0.0
25/04:09pm 14.1 9.5 6.6 60 3.6 W 20 39 11 21 1020.1 1020.1 0.0
25/04:00pm 14.2 11.0 7.0 62 3.5 WSW 13 20 7 11 1020.1 1020.1 0.0
25/03:30pm 14.6 10.4 7.3 61 3.6 W 19 28 10 15 1019.8 1019.8 0.0
25/03:00pm 15.2 10.1 5.8 53 4.5 WSW 22 28 12 15 1019.2 1019.2 0.0
25/02:30pm 15.5 10.4 6.2 54 4.5 SW 22 32 12 17 1019.0 1019.0 0.0
25/02:00pm 15.7 11.2 6.2 53 4.6 SW 19 22 10 12 1018.9 1018.9 0.0
25/01:30pm 15.6 10.9 7.6 59 4.0 WSW 22 30 12 16 1019.1 1019.1 0.0
25/01:00pm 15.7 12.5 6.7 55 4.4 SSW 13 19 7 10 1019.2 1019.2 0.0
25/12:30pm 15.5 12.4 7.4 58 4.0 SW 13 19 7 10 1019.6 1019.6 0.0
25/12:00pm 15.2 12.5 7.5 60 3.8 SW 11 17 6 9 1019.7 1019.7 0.0
25/11:30am 14.9 12.5 6.9 58 3.9 W 9 15 5 8 1020.1 1020.1 0.0
25/11:00am 15.3 12.1 6.9 57 4.1 W 13 20 7 11 1020.2 1020.2 0.0
25/10:30am 14.7 12.1 7.9 63 3.4 W 11 17 6 9 1020.3 1020.3 0.0
25/10:00am 13.8 11.3 8.4 70 2.7 WNW 11 17 6 9 1020.4 1020.4 0.0
25/09:30am 12.4 10.5 9.0 80 1.7 W 9 11 5 6 1020.3 1020.3 0.0
25/09:00am 11.4 8.5 8.3 81 1.5 WNW 13 15 7 8 1019.9 1019.9 0.0
25/08:30am 10.4 7.4 7.7 83 1.3 WNW 13 17 7 9 1019.8 1019.8 0.0
25/08:00am 9.0 5.4 6.6 85 1.1 WNW 15 19 8 10 1019.6 1019.6 0.0
25/07:30am 7.8 4.0 6.0 88 0.8 WNW 15 17 8 9 1019.3 1019.3 0.0
25/07:00am 8.2 5.3 6.5 89 0.8 WNW 11 15 6 8 1019.1 1019.1 0.0
25/06:30am 8.6 5.5 7.3 91 0.6 WNW 13 15 7 8 1018.8 1018.8 0.0
25/06:00am 5.3 4.1 4.4 94 0.4 CALM 0 6 0 3 1018.5 1018.5 0.0
25/05:30am 6.0 3.6 5.1 94 0.4 WNW 7 9 4 5 1018.3 1018.3 0.0
25/05:00am 7.6 5.1 6.5 93 0.5 NNW 9 11 5 6 1018.3 1018.3 0.0
25/04:30am 7.3 5.6 5.7 89 0.7 NW 4 7 2 4 1018.3 1018.3 0.0
25/04:00am 6.6 4.5 5.7 94 0.4 N 6 9 3 5 1018.3 1018.3 0.0
25/03:30am 7.6 5.1 6.7 94 0.4 WNW 9 11 5 6 1018.4 1018.4 0.0
25/03:00am 6.8 4.6 6.4 97 0.2 NW 7 11 4 6 1018.6 1018.6 0.0
25/02:30am 6.5 5.1 5.4 93 0.5 NW 2 7 1 4 1018.7 1018.7 0.0
25/02:00am 6.4 5.3 5.3 93 0.5 CALM 0 6 0 3 1018.8 1018.8 0.0
25/01:30am 9.5 6.6 8.0 90 0.7 W 13 15 7 8 1018.8 1018.8 0.0
25/01:00am 9.8 6.9 8.1 89 0.8 W 13 15 7 8 1018.9 1018.9 0.0
25/12:30am 10.3 7.5 8.7 90 0.8 W 13 15 7 8 1018.9 1018.9 0.0
25/12:00am 9.4 7.8 7.9 90 0.7 W 6 9 3 5 1018.8 1018.8 0.0
 
Date/Time
CST
Temp
°C
App
Temp
°C
Dew
Point
°C
Rel
Hum
%
Delta-T
°C
Wind Press
QNH
hPa
Press
MSL
hPa
Rain since
9am
mm
Dir  Spd
km/h
Gust
km/h
Spd
kts
Gust
kts
24/11:30pm 10.7 8.4 8.9 89 0.9 WNW 11 13 6 7 1019.0 1019.0 0.0
24/11:00pm 11.3 9.4 9.1 86 1.1 W 9 13 5 7 1019.1 1019.1 0.0
24/10:30pm 11.4 9.5 9.0 85 1.2 WSW 9 13 5 7 1019.2 1019.2 0.0
24/10:00pm 11.4 9.1 9.0 85 1.2 WSW 11 13 6 7 1019.4 1019.4 0.0
24/09:30pm 11.3 8.5 8.7 84 1.3 WSW 13 15 7 8 1019.3 1019.3 0.0
24/09:00pm 11.0 8.2 8.6 85 1.2 WSW 13 15 7 8 1019.3 1019.3 0.0
24/08:30pm 10.5 8.0 8.0 84 1.2 WSW 11 13 6 7 1019.2 1019.2 0.0
24/08:00pm 11.4 9.6 8.1 80 1.6 SSW 7 9 4 5 1019.3 1019.3 0.0
24/07:30pm 12.2 10.1 8.4 77 1.9 SSW 9 11 5 6 1019.1 1019.1 0.0
24/07:00pm 12.3 10.1 8.0 75 2.1 SSW 9 13 5 7 1019.0 1019.0 0.0
24/06:30pm 12.1 9.9 7.8 75 2.1 SW 9 11 5 6 1018.5 1018.5 0.0
24/06:00pm 13.0 10.7 7.5 69 2.7 S 9 11 5 6 1018.4 1018.4 0.0
24/05:30pm 14.4 11.5 8.0 65 3.2 S 13 19 7 10 1018.2 1018.2 0.0
24/05:00pm 15.5 13.8 7.7 59 3.9 SE 6 7 3 4 1018.1 1018.1 0.0
24/04:30pm 16.1 13.4 7.5 56 4.3 ESE 11 13 6 7 1018.0 1018.0 0.0
24/04:00pm 16.5 14.2 7.3 54 4.6 SE 9 13 5 7 1017.9 1017.9 0.0
24/03:30pm 17.1 14.8 7.3 52 4.9 N 9 13 5 7 1017.9 1017.9 0.0
24/03:00pm 17.1 16.5 7.6 53 4.8 CALM 0 0 0 0 1017.9 1017.9 0.0
24/02:30pm 17.1 15.8 7.6 53 4.8 ESE 4 11 2 6 1018.0 1018.0 0.0
24/02:00pm 16.3 14.5 8.0 58 4.2 NNE 7 9 4 5 1018.3 1018.3 0.0
24/01:30pm 16.1 14.4 7.7 57 4.2 E 6 11 3 6 1018.4 1018.4 0.0
24/01:00pm 16.1 13.9 7.7 57 4.2 NNE 9 13 5 7 1018.9 1018.9 0.0
24/12:30pm 15.9 13.8 8.2 60 3.9 E 9 13 5 7 1019.3 1019.3 0.0
24/12:00pm 16.4 13.9 8.3 58 4.1 NE 11 17 6 9 1019.6 1019.6 0.0
24/11:30am 15.9 13.1 8.4 61 3.8 NE 13 17 7 9 1019.9 1019.9 0.0
24/11:00am 15.1 12.7 8.8 66 3.2 NE 11 13 6 7 1020.4 1020.4 0.0
24/10:30am 15.3 13.1 9.5 68 3.0 NE 11 15 6 8 1020.8 1020.8 0.0
24/10:00am 14.2 13.0 9.7 74 2.3 N 6 7 3 4 1020.9 1020.9 0.0
24/09:30am 11.6 10.2 9.6 87 1.0 N 7 9 4 5 1020.8 1020.8 0.0
24/09:00am 8.9 7.4 8.3 96 0.3 NW 6 6 3 3 1020.7 1020.7 0.0
24/08:30am 8.2 6.5 7.6 96 0.3 NW 6 7 3 4 1020.7 1020.7 0.0
24/08:00am 5.9 3.2 5.4 97 0.2 NNW 9 13 5 7 1020.6 1020.6 0.0
24/07:30am 5.0 1.7 4.3 95 0.3 N 11 13 6 7 1020.2 1020.2 0.0
24/07:28am 4.8 1.4 3.8 93 0.4 N 11 13 6 7 1020.2 1020.2 0.0
24/07:00am 5.0 3.8 4.8 99 0.1 CALM 0 0 0 0 1020.0 1020.0 0.0
24/06:30am 4.6 2.1 3.9 95 0.3 E 6 9 3 5 1019.7 1019.7 0.0
24/06:02am 5.0 2.6 4.3 95 0.3 ENE 6 6 3 3 1019.4 1019.4 0.0
24/06:01am 5.0 2.5 4.0 93 0.4 ENE 6 6 3 3 1019.4 1019.4 0.0
24/06:00am 5.1 2.7 4.2 94 0.4 ENE 6 6 3 3 1019.4 1019.4 0.0
24/05:30am 4.9 3.6 4.2 95 0.3 CALM 0 2 0 1 1019.3 1019.3 0.0
24/05:00am 5.3 2.9 4.1 92 0.5 SE 6 9 3 5 1019.1 1019.1 0.0
24/04:30am 8.5 5.7 7.0 90 0.7 WNW 11 13 6 7 1019.0 1019.0 0.0
24/04:00am 6.2 3.5 5.5 95 0.3 W 9 15 5 8 1019.0 1019.0 0.0
24/03:30am 7.3 5.6 6.0 91 0.6 W 4 7 2 4 1018.9 1018.9 0.0
24/03:00am 8.4 6.4 7.1 91 0.6 NNW 7 7 4 4 1019.1 1019.1 0.0
24/02:30am 9.2 7.4 7.3 88 0.9 SSW 6 9 3 5 1019.0 1019.0 0.0
24/02:00am 11.2 7.6 8.3 82 1.4 W 17 19 9 10 1019.0 1019.0 0.0
24/01:30am 8.8 6.3 6.6 86 1.0 W 9 13 5 7 1019.1 1019.1 0.0
24/01:00am 5.4 3.6 3.7 89 0.7 W 2 7 1 4 1018.9 1018.9 0.0
24/12:30am 8.1 5.7 5.2 82 1.3 WNW 7 13 4 7 1019.1 1019.1 0.0
24/12:00am 7.4 5.5 4.7 83 1.2 SSW 4 9 2 5 1018.9 1018.9 0.0
 
Date/Time
CST
Temp
°C
App
Temp
°C
Dew
Point
°C
Rel
Hum
%
Delta-T
°C
Wind Press
QNH
hPa
Press
MSL
hPa
Rain since
9am
mm
Dir  Spd
km/h
Gust
km/h
Spd
kts
Gust
kts
23/11:30pm 7.5 5.4 3.8 77 1.6 NNW 4 7 2 4 1018.9 1018.9 0.0
23/11:00pm 8.5 4.6 3.6 71 2.1 W 13 15 7 8 1018.9 1018.9 0.0
23/10:30pm 6.2 3.5 2.5 77 1.5 W 6 9 3 5 1019.0 1019.0 0.0
23/10:00pm 6.5 3.7 2.9 78 1.5 SW 7 11 4 6 1019.0 1019.0 0.0
23/09:30pm 6.8 3.9 2.4 73 1.8 ENE 7 9 4 5 1018.9 1018.9 0.0
23/09:00pm 8.0 5.3 2.8 70 2.2 WSW 6 9 3 5 1018.8 1018.8 0.0
23/08:30pm 10.5 6.5 3.1 60 3.2 W 13 17 7 9 1018.5 1018.5 0.0
23/08:00pm 11.2 6.6 3.5 59 3.4 W 17 20 9 11 1018.3 1018.3 0.0
23/07:30pm 11.8 7.2 3.7 57 3.6 W 17 20 9 11 1018.2 1018.2 0.0
23/07:00pm 11.8 7.2 3.7 57 3.6 W 17 20 9 11 1018.0 1018.0 0.0
23/06:30pm 12.7 8.2 4.1 56 3.9 W 17 20 9 11 1017.7 1017.7 0.0
23/06:00pm 13.7 9.5 4.0 52 4.4 W 15 17 8 9 1017.3 1017.3 0.0
23/05:30pm 14.2 10.7 3.6 49 4.8 W 11 13 6 7 1017.1 1017.1 0.0
23/05:00pm 16.0 13.0 4.2 45 5.5 W 9 11 5 6 1016.9 1016.9 0.0
23/04:30pm 17.5 14.3 3.2 38 6.6 WNW 9 11 5 6 1016.7 1016.7 0.0
23/04:00pm 18.1 14.2 3.2 37 6.9 W 13 15 7 8 1017.0 1017.0 0.0
23/03:30pm 18.7 14.4 1.3 31 7.8 W 13 20 7 11 1016.8 1016.8 0.0
23/03:00pm 19.0 14.0 1.2 30 8.0 W 17 24 9 13 1016.7 1016.7 0.0
23/02:30pm 19.1 15.0 2.4 33 7.7 W 13 19 7 10 1016.5 1016.5 0.0
23/02:00pm 18.9 14.3 1.7 31 7.8 WNW 15 22 8 12 1016.8 1016.8 0.0
23/01:30pm 18.9 13.8 1.0 30 8.0 WNW 17 28 9 15 1017.1 1017.1 0.0
23/01:00pm 19.3 14.4 1.7 31 8.0 WNW 17 22 9 12 1017.8 1017.8 0.0
23/12:30pm 18.2 13.1 0.8 31 7.7 WNW 17 24 9 13 1017.8 1017.8 0.0
23/12:00pm 18.4 14.1 1.1 31 7.7 WNW 13 19 7 10 1018.0 1018.0 0.0
23/11:30am 18.4 14.1 1.1 31 7.7 NW 13 22 7 12 1018.2 1018.2 0.0
23/11:00am 18.3 13.3 1.6 32 7.5 NW 17 22 9 12 1018.6 1018.6 0.0
23/10:30am 17.5 12.0 1.6 34 7.1 NW 20 30 11 16 1018.9 1018.9 0.0
23/10:00am 16.8 10.9 1.4 35 6.8 NW 22 28 12 15 1018.8 1018.8 0.0
23/09:30am 13.2 10.5 3.6 52 4.3 W 7 15 4 8 1019.2 1019.2 0.0
23/09:00am 7.9 5.4 4.0 76 1.7 SSE 6 7 3 4 1019.1 1019.1 0.0
23/08:30am 7.0 4.2 3.2 77 1.6 NW 7 9 4 5 1018.8 1018.8 0.0
23/08:00am 8.5 4.2 3.4 70 2.2 NNW 15 17 8 9 1018.8 1018.8 0.0
23/07:30am 5.5 1.8 2.3 80 1.3 NNW 11 13 6 7 1018.9 1018.9 0.0
23/07:00am 3.6 0.5 1.3 85 0.9 N 7 9 4 5 1018.7 1018.7 0.0
23/06:30am 3.1 -0.1 0.7 84 0.9 NW 7 9 4 5 1018.8 1018.8 0.0
23/06:00am 2.3 -0.8 0.1 85 0.8 SSE 6 7 3 4 1018.1 1018.1 0.0
23/05:30am 3.2 0.0 0.8 84 0.9 N 7 9 4 5 1018.4 1018.4 0.0
23/05:00am 2.8 -1.2 0.7 86 0.8 NNW 11 13 6 7 1018.3 1018.3 0.0
23/04:30am 3.2 -1.5 1.1 86 0.8 NNW 15 17 8 9 1018.6 1018.6 0.0
23/04:00am 2.4 -1.6 0.5 87 0.7 NNW 11 13 6 7 1019.0 1019.0 0.0
23/03:30am 2.4 -1.3 0.2 85 0.8 NNW 9 11 5 6 1019.0 1019.0 0.0
23/03:00am 3.4 -0.5 1.1 85 0.9 NNW 11 13 6 7 1019.4 1019.4 0.0
23/02:30am 3.3 -0.4 0.1 79 1.2 NNW 9 11 5 6 1019.8 1019.8 0.0
23/02:00am 3.7 0.5 0.8 81 1.1 NNW 7 11 4 6 1020.0 1020.0 0.0
23/01:30am 4.1 0.6 1.0 80 1.2 NW 9 11 5 6 1020.0 1020.0 0.0
23/01:00am 4.0 0.4 0.9 80 1.2 NNW 9 11 5 6 1020.4 1020.4 0.0
23/12:30am 0.6 -2.8 -0.7 91 0.5 NNW 7 7 4 4 1020.5 1020.5 0.0
23/12:00am 4.6 1.1 1.3 79 1.3 NNW 9 11 5 6 1020.7 1020.7 0.0
 
Date/Time
CST
Temp
°C
App
Temp
°C
Dew
Point
°C
Rel
Hum
%
Delta-T
°C
Wind Press
QNH
hPa
Press
MSL
hPa
Rain since
9am
mm
Dir  Spd
km/h
Gust
km/h
Spd
kts
Gust
kts
22/11:30pm 4.5 0.6 0.9 77 1.4 NNW 11 13 6 7 1021.3 1021.4 0.0
22/11:00pm 4.5 0.5 0.6 76 1.5 NNW 11 13 6 7 1021.6 1021.7 0.0
22/10:30pm 5.0 1.5 1.2 76 1.5 NNW 9 11 5 6 1021.7 1021.8 0.0
22/10:00pm 5.6 2.1 1.3 74 1.7 NNW 9 11 5 6 1021.7 1021.8 0.0
22/09:30pm 6.2 1.9 1.1 70 2.0 NNW 13 13 7 7 1022.1 1022.2 0.0
22/09:00pm 6.9 3.0 1.4 68 2.2 NNW 11 13 6 7 1022.0 1022.1 0.0
22/08:30pm 2.5 -1.3 -0.5 80 1.1 NNW 9 11 5 6 1022.1 1022.2 0.0

Other Formats:

Comma delimited format used in spreadsheet applications
http://www.bom.gov.au/fwo/IDS60801/IDS60801.95818.axf

JavaScript Object Notation format (JSON) in row-major order
http://www.bom.gov.au/fwo/IDS60801/IDS60801.95818.json